createdAt,value
2019-02-27T00:03:00.014Z,29.33
2019-02-27T00:06:23.291Z,24.00
2019-02-27T00:09:46.524Z,32.83
2019-02-27T00:13:09.662Z,31.33
2019-02-27T00:16:33.946Z,28.67
2019-02-27T00:19:57.056Z,31.37
2019-02-27T00:23:23.894Z,32.60
2019-02-27T00:26:45.126Z,26.90
2019-02-27T00:30:09.508Z,33.23
2019-02-27T00:33:34.419Z,26.60
2019-02-27T00:36:57.589Z,28.77
2019-02-27T00:40:21.070Z,26.60
2019-02-27T00:43:44.492Z,28.13
2019-02-27T00:47:07.591Z,28.60
2019-02-27T00:50:31.093Z,32.43
2019-02-27T00:53:55.911Z,28.43
2019-02-27T00:57:20.848Z,28.47
2019-02-27T01:00:44.324Z,32.87
2019-02-27T01:04:07.419Z,27.80
2019-02-27T01:07:30.541Z,28.33
2019-02-27T01:10:53.681Z,28.83
2019-02-27T01:14:16.789Z,30.73
2019-02-27T01:17:40.193Z,28.53
2019-02-27T01:21:03.300Z,26.70
2019-02-27T01:24:26.380Z,22.43
2019-02-27T01:27:49.490Z,33.17
2019-02-27T01:31:12.706Z,26.80
2019-02-27T01:34:35.821Z,26.87
2019-02-27T01:37:59.226Z,33.67
2019-02-27T01:41:24.568Z,27.00
2019-02-27T01:44:47.419Z,24.67
2019-02-27T01:48:10.503Z,25.07
2019-02-27T01:51:33.590Z,31.70
2019-02-27T01:54:56.699Z,28.93
2019-02-27T01:58:19.827Z,32.20
2019-02-27T02:01:42.903Z,29.60
2019-02-27T02:05:06.164Z,25.93
2019-02-27T02:08:30.024Z,30.97
2019-02-27T02:11:53.228Z,27.53
2019-02-27T02:16:20.628Z,28.37
2019-02-27T02:20:37.621Z,25.10
2019-02-27T02:24:42.360Z,28.37
2019-02-27T02:28:54.966Z,26.67
2019-02-27T02:33:10.770Z,26.27
2019-02-27T02:37:18.291Z,23.87
2019-02-27T02:41:47.959Z,24.33
2019-02-27T02:45:51.818Z,22.63
2019-02-27T02:50:17.860Z,21.47
2019-02-27T02:54:37.517Z,21.73
2019-02-27T02:58:51.660Z,21.63
2019-02-27T03:03:04.433Z,20.90
2019-02-27T03:07:21.629Z,26.27
2019-02-27T03:11:22.843Z,27.40
2019-02-27T03:15:40.930Z,20.10
2019-02-27T03:19:50.331Z,24.40
2019-02-27T03:23:52.042Z,22.63
2019-02-27T03:28:21.268Z,23.80
2019-02-27T03:32:41.174Z,23.07
2019-02-27T03:36:48.269Z,20.43
2019-02-27T03:40:45.051Z,25.87
2019-02-27T03:44:57.915Z,18.80
2019-02-27T03:49:24.287Z,22.53
2019-02-27T03:53:32.480Z,22.17
2019-02-27T03:57:34.412Z,21.10
2019-02-27T04:01:18.700Z,20.43
2019-02-27T04:05:48.912Z,23.87
2019-02-27T04:09:12.065Z,27.43
2019-02-27T04:12:35.134Z,24.60
2019-02-27T04:15:58.586Z,24.10
2019-02-27T04:19:21.804Z,22.33
2019-02-27T04:22:44.939Z,25.30
2019-02-27T04:26:08.014Z,20.73
2019-02-27T04:29:31.118Z,25.17
2019-02-27T04:32:54.237Z,25.17
2019-02-27T04:36:17.615Z,18.90
2019-02-27T04:39:40.765Z,19.23
2019-02-27T04:43:03.976Z,18.33
2019-02-27T04:46:27.083Z,20.77
2019-02-27T04:49:50.183Z,20.93
2019-02-27T04:53:13.291Z,18.33
2019-02-27T04:56:36.680Z,19.30
2019-02-27T05:00:00.150Z,14.77
2019-02-27T05:03:25.807Z,14.10
2019-02-27T05:06:48.700Z,18.10
2019-02-27T05:10:11.857Z,14.77
2019-02-27T05:13:34.959Z,17.77
2019-02-27T05:16:59.619Z,14.13
2019-02-27T05:20:22.880Z,17.60
2019-02-27T05:23:46.669Z,12.97
2019-02-27T05:27:09.799Z,16.33
2019-02-27T05:30:32.857Z,33.03
2019-02-27T05:33:56.291Z,17.90
2019-02-27T05:37:19.352Z,16.63
2019-02-27T05:40:42.496Z,12.40
2019-02-27T05:44:06.847Z,13.40
2019-02-27T05:47:29.931Z,15.53
2019-02-27T05:50:53.140Z,15.70
2019-02-27T05:54:16.551Z,13.93
2019-02-27T05:57:39.660Z,14.90
2019-02-27T06:01:05.037Z,17.77
2019-02-27T06:04:29.664Z,13.37
2019-02-27T06:07:52.779Z,15.27
2019-02-27T06:11:27.089Z,15.37
2019-02-27T06:14:54.977Z,12.67
2019-02-27T06:18:22.509Z,13.93
2019-02-27T06:21:43.756Z,12.67
2019-02-27T06:25:32.331Z,14.63
2019-02-27T06:29:34.470Z,14.27
2019-02-27T06:33:39.142Z,14.67
2019-02-27T06:51:23.667Z,14.47
2019-02-27T06:59:33.587Z,13.27
2019-02-27T07:03:52.184Z,13.90
2019-02-27T07:08:37.975Z,18.47
2019-02-27T07:12:39.882Z,17.47
2019-02-27T07:17:12.974Z,12.60
2019-02-27T07:27:16.937Z,14.33
2019-02-27T07:31:52.101Z,12.00
2019-02-27T07:36:03.314Z,13.73
2019-02-27T07:48:56.544Z,17.97
2019-02-27T07:53:06.276Z,13.37
2019-02-27T07:57:36.037Z,16.30
2019-02-27T08:11:35.751Z,14.23
2019-02-27T08:15:29.251Z,15.07
2019-02-27T08:19:52.423Z,13.47
2019-02-27T08:24:51.943Z,20.03
2019-02-27T08:29:16.828Z,15.57
2019-02-27T08:34:13.169Z,14.80
2019-02-27T08:38:23.534Z,14.47
2019-02-27T08:47:33.671Z,21.50
2019-02-27T08:51:12.902Z,17.33
2019-02-27T08:56:18.161Z,15.33
2019-02-27T09:10:46.885Z,20.57
2019-02-27T09:20:16.890Z,16.83
2019-02-27T09:40:38.170Z,16.90
2019-02-27T09:49:50.438Z,14.68
2019-02-27T09:54:55.521Z,19.67
2019-02-27T10:00:09.255Z,12.05
2019-02-27T10:04:10.306Z,21.37
2019-02-27T10:13:25.168Z,13.22
2019-02-27T10:18:19.025Z,12.43
2019-02-27T10:28:04.839Z,15.83
2019-02-27T10:42:50.248Z,14.05
2019-02-27T11:02:03.912Z,11.43
2019-02-27T11:11:02.446Z,15.25
2019-02-27T11:20:06.412Z,16.85
2019-02-27T11:33:56.597Z,13.58
2019-02-27T11:38:06.307Z,20.65
2019-02-27T11:47:24.901Z,25.77
2019-02-27T11:56:20.244Z,21.10
2019-02-27T12:15:52.220Z,21.95
2019-02-27T12:19:57.983Z,15.78
2019-02-27T12:24:50.313Z,16.95
2019-02-27T12:29:54.378Z,15.95
2019-02-27T12:33:53.599Z,13.15
2019-02-27T12:38:24.651Z,12.33
2019-02-27T12:53:33.325Z,18.15
2019-02-27T12:57:25.716Z,16.52
2019-02-27T13:17:00.224Z,14.45
2019-02-27T13:21:48.346Z,15.28
2019-02-27T13:31:27.742Z,16.30
2019-02-27T13:35:42.475Z,17.20
2019-02-27T14:05:15.785Z,20.30
2019-02-27T14:09:25.194Z,13.78
2019-02-27T14:13:26.493Z,12.85
2019-02-27T14:17:47.422Z,13.25
2019-02-27T14:21:42.777Z,17.70
2019-02-27T14:25:49.466Z,9.65
2019-02-27T14:29:54.719Z,14.93
2019-02-27T14:33:51.152Z,10.90
2019-02-27T14:38:01.768Z,9.93
2019-02-27T14:42:09.687Z,11.90
2019-02-27T14:50:45.869Z,8.78
2019-02-27T14:55:21.241Z,13.50
2019-02-27T15:00:25.462Z,15.88
2019-02-27T15:09:47.808Z,18.10
2019-02-27T15:14:03.895Z,10.53
2019-02-27T15:18:27.966Z,13.32
2019-02-27T15:23:25.098Z,9.75
2019-02-27T15:27:46.836Z,9.90
2019-02-27T15:36:48.111Z,8.45
2019-02-27T15:41:15.161Z,9.78
2019-02-27T15:45:09.055Z,9.05
2019-02-27T16:15:05.745Z,9.43
2019-02-27T16:29:48.547Z,9.13
2019-02-27T16:48:46.826Z,11.75
2019-02-27T16:53:38.360Z,8.73
2019-02-27T17:02:52.065Z,8.85
2019-02-27T17:07:09.284Z,10.93
2019-02-27T17:12:25.375Z,7.22
2019-02-27T17:16:23.259Z,7.22
2019-02-27T17:34:16.569Z,7.87
2019-02-27T17:47:54.874Z,9.95
2019-02-27T17:51:33.917Z,8.70
2019-02-27T17:56:02.863Z,10.63
2019-02-27T18:00:17.699Z,10.38
2019-02-27T18:09:04.903Z,9.95
2019-02-27T18:12:55.905Z,9.80
2019-02-27T18:17:35.693Z,9.63
2019-02-27T18:21:16.909Z,9.85
2019-02-27T18:25:38.641Z,12.98
2019-02-27T18:29:43.748Z,13.35
2019-02-27T18:34:03.990Z,19.45
2019-02-27T18:38:44.066Z,18.60
2019-02-27T18:43:35.090Z,13.35
2019-02-27T18:47:58.414Z,15.05
2019-02-27T18:52:21.343Z,12.58
2019-02-27T19:00:46.545Z,11.70
2019-02-27T19:19:27.233Z,24.02
2019-02-27T19:24:03.586Z,19.17
2019-02-27T19:28:44.881Z,12.58
2019-02-27T19:38:14.427Z,14.23
2019-02-27T19:51:10.612Z,12.18
2019-02-27T19:55:54.299Z,14.73
2019-02-27T20:15:25.699Z,15.03
2019-02-27T20:19:48.375Z,17.03
2019-02-27T20:24:43.121Z,16.30
2019-02-27T20:28:41.366Z,14.33
2019-02-27T20:32:28.396Z,16.03
2019-02-27T20:36:42.648Z,17.73
2019-02-27T20:40:48.825Z,14.17
2019-02-27T20:50:52.096Z,15.13
2019-02-27T20:54:47.882Z,14.33
2019-02-27T20:58:50.900Z,14.80
2019-02-27T21:02:42.759Z,15.70
2019-02-27T21:10:37.547Z,17.43
2019-02-27T21:14:29.023Z,18.47
2019-02-27T21:18:53.872Z,18.20
2019-02-27T21:27:39.843Z,16.70
2019-02-27T21:32:18.590Z,17.00
2019-02-27T21:42:03.592Z,17.20
2019-02-27T21:47:22.983Z,18.00
2019-02-27T21:51:21.440Z,21.57
2019-02-27T21:55:18.958Z,17.70
2019-02-27T22:05:01.080Z,17.97
2019-02-27T22:09:44.537Z,20.73
2019-02-27T22:14:01.138Z,19.90
2019-02-27T22:18:01.367Z,19.73
2019-02-27T22:22:41.564Z,20.53
2019-02-27T22:27:12.744Z,21.93
2019-02-27T22:36:43.990Z,24.40
2019-02-27T22:45:19.252Z,30.73
2019-02-27T22:49:42.020Z,25.90
2019-02-27T23:14:19.756Z,26.67
2019-02-27T23:19:13.806Z,36.77
2019-02-27T23:23:44.049Z,27.87
2019-02-27T23:33:11.033Z,32.30
2019-02-27T23:37:24.242Z,27.73
2019-02-27T23:41:32.493Z,29.33
2019-02-27T23:45:45.259Z,31.30
